<?xml version="1.0" encoding="utf-8"?>
<gpx xmlns:xsi="http://www.w3.org/2001/XMLSchema-instance" xmlns:xsd="http://www.w3.org/2001/XMLSchema" version="1.1" creator="Shapelink.com" xmlns="http://www.topografix.com/GPX/1/1" xmlns:gpxtpx="http://www.garmin.com/xmlschemas/TrackPointExtension/v1">
  <metadata>
    <name>Laufen 7.12 km, 2011-05-28</name>
    <desc></desc>
    <author><name>Jessica Ternander</name></author> 
    <time>2011-05-28T14:15:51Z</time>
  </metadata>
  <trk>
    <name>Laufen 7.12 km, 2011-05-28</name>
    <trkseg>
      <trkpt lat="59.2993327" lon="18.507371">
        <ele>20.8057</ele>
        <time>2011-05-28T14:15:51Z</time>
      </trkpt>
      <trkpt lat="59.2993406" lon="18.5073423">
        <ele>21.2864</ele>
        <time>2011-05-28T14:15:52Z</time>
      </trkpt>
      <trkpt lat="59.2993267" lon="18.5070913">
        <ele>20.8057</ele>
        <time>2011-05-28T14:15:57Z</time>
      </trkpt>
      <trkpt lat="59.2992933" lon="18.5068861">
        <ele>19.8444</ele>
        <time>2011-05-28T14:16:01Z</time>
      </trkpt>
      <trkpt lat="59.2992624" lon="18.5066284">
        <ele>20.8057</ele>
        <time>2011-05-28T14:16:06Z</time>
      </trkpt>
      <trkpt lat="59.2992247" lon="18.5063635">
        <ele>21.767</ele>
        <time>2011-05-28T14:16:11Z</time>
      </trkpt>
      <trkpt lat="59.299169" lon="18.506151">
        <ele>21.767</ele>
        <time>2011-05-28T14:16:15Z</time>
      </trkpt>
      <trkpt lat="59.2991358" lon="18.5058372">
        <ele>22.7283</ele>
        <time>2011-05-28T14:16:21Z</time>
      </trkpt>
      <trkpt lat="59.2991376" lon="18.5057833">
        <ele>23.209</ele>
        <time>2011-05-28T14:16:22Z</time>
      </trkpt>
      <trkpt lat="59.2991241" lon="18.5055755">
        <ele>24.1703</ele>
        <time>2011-05-28T14:16:26Z</time>
      </trkpt>
      <trkpt lat="59.299147" lon="18.5053854">
        <ele>24.651</ele>
        <time>2011-05-28T14:16:30Z</time>
      </trkpt>
      <trkpt lat="59.2992318" lon="18.5052635">
        <ele>25.6123</ele>
        <time>2011-05-28T14:16:34Z</time>
      </trkpt>
      <trkpt lat="59.2993721" lon="18.5051217">
        <ele>25.6123</ele>
        <time>2011-05-28T14:16:40Z</time>
      </trkpt>
      <trkpt lat="59.299467" lon="18.504984">
        <ele>24.1703</ele>
        <time>2011-05-28T14:16:45Z</time>
      </trkpt>
      <trkpt lat="59.2995338" lon="18.5048046">
        <ele>24.1703</ele>
        <time>2011-05-28T14:16:50Z</time>
      </trkpt>
      <trkpt lat="59.2995937" lon="18.504597">
        <ele>24.1703</ele>
        <time>2011-05-28T14:16:55Z</time>
      </trkpt>
      <trkpt lat="59.2996328" lon="18.5044016">
        <ele>25.1317</ele>
        <time>2011-05-28T14:16:59Z</time>
      </trkpt>
      <trkpt lat="59.2996935" lon="18.5041996">
        <ele>26.5736</ele>
        <time>2011-05-28T14:17:03Z</time>
      </trkpt>
      <trkpt lat="59.2997422" lon="18.5040088">
        <ele>27.5349</ele>
        <time>2011-05-28T14:17:07Z</time>
      </trkpt>
      <trkpt lat="59.299797" lon="18.5037956">
        <ele>28.9769</ele>
        <time>2011-05-28T14:17:12Z</time>
      </trkpt>
      <trkpt lat="59.2998424" lon="18.5036195">
        <ele>29.9381</ele>
        <time>2011-05-28T14:17:16Z</time>
      </trkpt>
      <trkpt lat="59.2999145" lon="18.5034095">
        <ele>30.8995</ele>
        <time>2011-05-28T14:17:21Z</time>
      </trkpt>
      <trkpt lat="59.2999674" lon="18.5032555">
        <ele>31.3801</ele>
        <time>2011-05-28T14:17:25Z</time>
      </trkpt>
      <trkpt lat="59.3000252" lon="18.5030854">
        <ele>32.8223</ele>
        <time>2011-05-28T14:17:29Z</time>
      </trkpt>
      <trkpt lat="59.300098" lon="18.502857">
        <ele>32.3416</ele>
        <time>2011-05-28T14:17:34Z</time>
      </trkpt>
      <trkpt lat="59.3001496" lon="18.5026748">
        <ele>31.8607</ele>
        <time>2011-05-28T14:17:38Z</time>
      </trkpt>
      <trkpt lat="59.3002175" lon="18.502511">
        <ele>30.8995</ele>
        <time>2011-05-28T14:17:42Z</time>
      </trkpt>
      <trkpt lat="59.3002658" lon="18.5023084">
        <ele>30.4188</ele>
        <time>2011-05-28T14:17:46Z</time>
      </trkpt>
      <trkpt lat="59.3003074" lon="18.5020514">
        <ele>28.9769</ele>
        <time>2011-05-28T14:17:51Z</time>
      </trkpt>
      <trkpt lat="59.3003383" lon="18.5018288">
        <ele>28.0155</ele>
        <time>2011-05-28T14:17:56Z</time>
      </trkpt>
      <trkpt lat="59.3003663" lon="18.5016346">
        <ele>27.5349</ele>
        <time>2011-05-28T14:18:00Z</time>
      </trkpt>
      <trkpt lat="59.3004076" lon="18.5014081">
        <ele>27.5349</ele>
        <time>2011-05-28T14:18:05Z</time>
      </trkpt>
      <trkpt lat="59.3004538" lon="18.5011755">
        <ele>26.5736</ele>
        <time>2011-05-28T14:18:11Z</time>
      </trkpt>
      <trkpt lat="59.3004814" lon="18.5009896">
        <ele>27.5349</ele>
        <time>2011-05-28T14:18:15Z</time>
      </trkpt>
      <trkpt lat="59.3005201" lon="18.5007646">
        <ele>28.4962</ele>
        <time>2011-05-28T14:18:19Z</time>
      </trkpt>
      <trkpt lat="59.300575" lon="18.5005824">
        <ele>28.4962</ele>
        <time>2011-05-28T14:18:23Z</time>
      </trkpt>
      <trkpt lat="59.3006356" lon="18.5002556">
        <ele>28.4962</ele>
        <time>2011-05-28T14:18:30Z</time>
      </trkpt>
      <trkpt lat="59.3006536" lon="18.5001306">
        <ele>28.0155</ele>
        <time>2011-05-28T14:18:33Z</time>
      </trkpt>
      <trkpt lat="59.3007045" lon="18.4998141">
        <ele>26.0929</ele>
        <time>2011-05-28T14:18:40Z</time>
      </trkpt>
      <trkpt lat="59.3007512" lon="18.4995584">
        <ele>26.5736</ele>
        <time>2011-05-28T14:18:45Z</time>
      </trkpt>
      <trkpt lat="59.30078" lon="18.4994255">
        <ele>26.5736</ele>
        <time>2011-05-28T14:18:48Z</time>
      </trkpt>
      <trkpt lat="59.3008179" lon="18.4992326">
        <ele>26.0929</ele>
        <time>2011-05-28T14:18:52Z</time>
      </trkpt>
      <trkpt lat="59.3008784" lon="18.4989605">
        <ele>26.0929</ele>
        <time>2011-05-28T14:18:57Z</time>
      </trkpt>
      <trkpt lat="59.3009248" lon="18.4987428">
        <ele>26.5736</ele>
        <time>2011-05-28T14:19:01Z</time>
      </trkpt>
      <trkpt lat="59.3009551" lon="18.4985363">
        <ele>26.0929</ele>
        <time>2011-05-28T14:19:05Z</time>
      </trkpt>
      <trkpt lat="59.3009952" lon="18.4983249">
        <ele>26.0929</ele>
        <time>2011-05-28T14:19:09Z</time>
      </trkpt>
      <trkpt lat="59.3010432" lon="18.4980825">
        <ele>25.6123</ele>
        <time>2011-05-28T14:19:14Z</time>
      </trkpt>
      <trkpt lat="59.3010686" lon="18.4980032">
        <ele>24.651</ele>
        <time>2011-05-28T14:19:16Z</time>
      </trkpt>
      <trkpt lat="59.3011582" lon="18.4978302">
        <ele>21.767</ele>
        <time>2011-05-28T14:19:21Z</time>
      </trkpt>
      <trkpt lat="59.3012951" lon="18.4976373">
        <ele>20.325</ele>
        <time>2011-05-28T14:19:27Z</time>
      </trkpt>
      <trkpt lat="59.3013857" lon="18.4974199">
        <ele>18.4023</ele>
        <time>2011-05-28T14:19:32Z</time>
      </trkpt>
      <trkpt lat="59.301356" lon="18.4972133">
        <ele>18.8831</ele>
        <time>2011-05-28T14:19:36Z</time>
      </trkpt>
      <trkpt lat="59.3013132" lon="18.4970714">
        <ele>18.8831</ele>
        <time>2011-05-28T14:19:39Z</time>
      </trkpt>
      <trkpt lat="59.301234" lon="18.4968155">
        <ele>18.4023</ele>
        <time>2011-05-28T14:19:45Z</time>
      </trkpt>
      <trkpt lat="59.3011945" lon="18.4966849">
        <ele>18.8831</ele>
        <time>2011-05-28T14:19:48Z</time>
      </trkpt>
      <trkpt lat="59.3011208" lon="18.49646">
        <ele>20.8057</ele>
        <time>2011-05-28T14:19:53Z</time>
      </trkpt>
      <trkpt lat="59.3010813" lon="18.4963818">
        <ele>21.767</ele>
        <time>2011-05-28T14:19:55Z</time>
      </trkpt>
      <trkpt lat="59.3010312" lon="18.4961064">
        <ele>24.1703</ele>
        <time>2011-05-28T14:20:01Z</time>
      </trkpt>
      <trkpt lat="59.3009784" lon="18.4958716">
        <ele>25.1317</ele>
        <time>2011-05-28T14:20:06Z</time>
      </trkpt>
      <trkpt lat="59.3008988" lon="18.495594">
        <ele>25.1317</ele>
        <time>2011-05-28T14:20:12Z</time>
      </trkpt>
      <trkpt lat="59.3008381" lon="18.4953281">
        <ele>25.6123</ele>
        <time>2011-05-28T14:20:17Z</time>
      </trkpt>
      <trkpt lat="59.3007962" lon="18.4951148">
        <ele>25.6123</ele>
        <time>2011-05-28T14:20:21Z</time>
      </trkpt>
      <trkpt lat="59.300747" lon="18.494947">
        <ele>24.1703</ele>
        <time>2011-05-28T14:20:25Z</time>
      </trkpt>
      <trkpt lat="59.3007206" lon="18.494764">
        <ele>23.6896</ele>
        <time>2011-05-28T14:20:29Z</time>
      </trkpt>
      <trkpt lat="59.3006762" lon="18.4945717">
        <ele>22.7283</ele>
        <time>2011-05-28T14:20:33Z</time>
      </trkpt>
      <trkpt lat="59.3005925" lon="18.4943078">
        <ele>22.7283</ele>
        <time>2011-05-28T14:20:39Z</time>
      </trkpt>
      <trkpt lat="59.3005093" lon="18.4940979">
        <ele>23.6896</ele>
        <time>2011-05-28T14:20:44Z</time>
      </trkpt>
      <trkpt lat="59.3004459" lon="18.4938711">
        <ele>24.1703</ele>
        <time>2011-05-28T14:20:49Z</time>
      </trkpt>
      <trkpt lat="59.3004175" lon="18.4937664">
        <ele>25.1317</ele>
        <time>2011-05-28T14:20:51Z</time>
      </trkpt>
      <trkpt lat="59.3003508" lon="18.4935935">
        <ele>25.6123</ele>
        <time>2011-05-28T14:20:55Z</time>
      </trkpt>
      <trkpt lat="59.300283" lon="18.4933011">
        <ele>26.0929</ele>
        <time>2011-05-28T14:21:01Z</time>
      </trkpt>
      <trkpt lat="59.3002616" lon="18.4932085">
        <ele>26.5736</ele>
        <time>2011-05-28T14:21:03Z</time>
      </trkpt>
      <trkpt lat="59.3002128" lon="18.4929817">
        <ele>26.5736</ele>
        <time>2011-05-28T14:21:08Z</time>
      </trkpt>
      <trkpt lat="59.3001693" lon="18.4928107">
        <ele>25.6123</ele>
        <time>2011-05-28T14:21:12Z</time>
      </trkpt>
      <trkpt lat="59.3001342" lon="18.4926843">
        <ele>24.1703</ele>
        <time>2011-05-28T14:21:15Z</time>
      </trkpt>
      <trkpt lat="59.3000403" lon="18.4923518">
        <ele>22.2476</ele>
        <time>2011-05-28T14:21:23Z</time>
      </trkpt>
      <trkpt lat="59.2999726" lon="18.4920922">
        <ele>21.767</ele>
        <time>2011-05-28T14:21:28Z</time>
      </trkpt>
      <trkpt lat="59.2999175" lon="18.4918805">
        <ele>21.2864</ele>
        <time>2011-05-28T14:21:32Z</time>
      </trkpt>
      <trkpt lat="59.2998492" lon="18.491628">
        <ele>20.8057</ele>
        <time>2011-05-28T14:21:37Z</time>
      </trkpt>
      <trkpt lat="59.299785" lon="18.4913529">
        <ele>20.8057</ele>
        <time>2011-05-28T14:21:42Z</time>
      </trkpt>
      <trkpt lat="59.2997504" lon="18.4911634">
        <ele>21.2864</ele>
        <time>2011-05-28T14:21:46Z</time>
      </trkpt>
      <trkpt lat="59.299695" lon="18.4908997">
        <ele>20.8057</ele>
        <time>2011-05-28T14:21:51Z</time>
      </trkpt>
      <trkpt lat="59.299658" lon="18.4906642">
        <ele>19.3638</ele>
        <time>2011-05-28T14:21:56Z</time>
      </trkpt>
      <trkpt lat="59.2996012" lon="18.4904507">
        <ele>19.8444</ele>
        <time>2011-05-28T14:22:00Z</time>
      </trkpt>
      <trkpt lat="59.2995763" lon="18.4902559">
        <ele>17.9218</ele>
        <time>2011-05-28T14:22:04Z</time>
      </trkpt>
      <trkpt lat="59.2995249" lon="18.4900357">
        <ele>15.0377</ele>
        <time>2011-05-28T14:22:08Z</time>
      </trkpt>
      <trkpt lat="59.2994924" lon="18.4898916">
        <ele>13.5958</ele>
        <time>2011-05-28T14:22:11Z</time>
      </trkpt>
      <trkpt lat="59.2994147" lon="18.4895612">
        <ele>11.6732</ele>
        <time>2011-05-28T14:22:17Z</time>
      </trkpt>
      <trkpt lat="59.2993635" lon="18.4892894">
        <ele>10.7118</ele>
        <time>2011-05-28T14:22:22Z</time>
      </trkpt>
      <trkpt lat="59.299314" lon="18.4890873">
        <ele>9.75061</ele>
        <time>2011-05-28T14:22:26Z</time>
      </trkpt>
      <trkpt lat="59.2992858" lon="18.4889531">
        <ele>9.2699</ele>
        <time>2011-05-28T14:22:28Z</time>
      </trkpt>
      <trkpt lat="59.29927" lon="18.4887268">
        <ele>8.78918</ele>
        <time>2011-05-28T14:22:32Z</time>
      </trkpt>
      <trkpt lat="59.2992443" lon="18.4884605">
        <ele>8.30859</ele>
        <time>2011-05-28T14:22:37Z</time>
      </trkpt>
      <trkpt lat="59.2992412" lon="18.4884173">
        <ele>8.30859</ele>
        <time>2011-05-28T14:22:38Z</time>
      </trkpt>
      <trkpt lat="59.2991676" lon="18.4881761">
        <ele>9.2699</ele>
        <time>2011-05-28T14:22:44Z</time>
      </trkpt>
      <trkpt lat="59.299124" lon="18.4880496">
        <ele>11.1925</ele>
        <time>2011-05-28T14:22:48Z</time>
      </trkpt>
      <trkpt lat="59.2990646" lon="18.4879226">
        <ele>12.6344</ele>
        <time>2011-05-28T14:22:52Z</time>
      </trkpt>
      <trkpt lat="59.2990519" lon="18.4878938">
        <ele>13.1151</ele>
        <time>2011-05-28T14:22:53Z</time>
      </trkpt>
      <trkpt lat="59.2990262" lon="18.4876327">
        <ele>14.0764</ele>
        <time>2011-05-28T14:22:59Z</time>
      </trkpt>
      <trkpt lat="59.2990234" lon="18.4874655">
        <ele>15.0377</ele>
        <time>2011-05-28T14:23:03Z</time>
      </trkpt>
      <trkpt lat="59.2990765" lon="18.4872401">
        <ele>17.9218</ele>
        <time>2011-05-28T14:23:09Z</time>
      </trkpt>
      <trkpt lat="59.299106" lon="18.487086">
        <ele>19.3638</ele>
        <time>2011-05-28T14:23:13Z</time>
      </trkpt>
      <trkpt lat="59.2990785" lon="18.4868118">
        <ele>21.2864</ele>
        <time>2011-05-28T14:23:19Z</time>
      </trkpt>
      <trkpt lat="59.2990413" lon="18.4866056">
        <ele>24.1703</ele>
        <time>2011-05-28T14:23:23Z</time>
      </trkpt>
      <trkpt lat="59.2990051" lon="18.4863517">
        <ele>26.0929</ele>
        <time>2011-05-28T14:23:28Z</time>
      </trkpt>
      <trkpt lat="59.2989977" lon="18.4862512">
        <ele>26.5736</ele>
        <time>2011-05-28T14:23:30Z</time>
      </trkpt>
      <trkpt lat="59.2990353" lon="18.4859617">
        <ele>27.0543</ele>
        <time>2011-05-28T14:23:36Z</time>
      </trkpt>
      <trkpt lat="59.2991033" lon="18.4857579">
        <ele>27.0543</ele>
        <time>2011-05-28T14:23:41Z</time>
      </trkpt>
      <trkpt lat="59.2991769" lon="18.4855954">
        <ele>28.0155</ele>
        <time>2011-05-28T14:23:46Z</time>
      </trkpt>
      <trkpt lat="59.2993016" lon="18.4854755">
        <ele>29.4575</ele>
        <time>2011-05-28T14:23:51Z</time>
      </trkpt>
      <trkpt lat="59.2994105" lon="18.4854171">
        <ele>29.4575</ele>
        <time>2011-05-28T14:23:55Z</time>
      </trkpt>
      <trkpt lat="59.2995303" lon="18.4852881">
        <ele>29.4575</ele>
        <time>2011-05-28T14:24:00Z</time>
      </trkpt>
      <trkpt lat="59.2996245" lon="18.4851228">
        <ele>28.4962</ele>
        <time>2011-05-28T14:24:05Z</time>
      </trkpt>
      <trkpt lat="59.2997181" lon="18.4849482">
        <ele>28.0155</ele>
        <time>2011-05-28T14:24:10Z</time>
      </trkpt>
      <trkpt lat="59.299798" lon="18.4846944">
        <ele>27.5349</ele>
        <time>2011-05-28T14:24:16Z</time>
      </trkpt>
      <trkpt lat="59.2998291" lon="18.4844765">
        <ele>26.5736</ele>
        <time>2011-05-28T14:24:21Z</time>
      </trkpt>
      <trkpt lat="59.2998339" lon="18.4843879">
        <ele>26.5736</ele>
        <time>2011-05-28T14:24:23Z</time>
      </trkpt>
      <trkpt lat="59.2998359" lon="18.4841345">
        <ele>27.0543</ele>
        <time>2011-05-28T14:24:28Z</time>
      </trkpt>
      <trkpt lat="59.2998465" lon="18.4839424">
        <ele>27.0543</ele>
        <time>2011-05-28T14:24:32Z</time>
      </trkpt>
      <trkpt lat="59.2998453" lon="18.4836314">
        <ele>28.0155</ele>
        <time>2011-05-28T14:24:38Z</time>
      </trkpt>
      <trkpt lat="59.29987" lon="18.4833713">
        <ele>27.0543</ele>
        <time>2011-05-28T14:24:43Z</time>
      </trkpt>
      <trkpt lat="59.2999468" lon="18.4831876">
        <ele>26.0929</ele>
        <time>2011-05-28T14:24:47Z</time>
      </trkpt>
      <trkpt lat="59.3000025" lon="18.483066">
        <ele>25.1317</ele>
        <time>2011-05-28T14:24:50Z</time>
      </trkpt>
      <trkpt lat="59.3001006" lon="18.4828652">
        <ele>23.209</ele>
        <time>2011-05-28T14:24:55Z</time>
      </trkpt>
      <trkpt lat="59.3002188" lon="18.4826929">
        <ele>21.767</ele>
        <time>2011-05-28T14:25:00Z</time>
      </trkpt>
      <trkpt lat="59.3002565" lon="18.4826207">
        <ele>21.2864</ele>
        <time>2011-05-28T14:25:02Z</time>
      </trkpt>
      <trkpt lat="59.3004075" lon="18.4824427">
        <ele>19.8444</ele>
        <time>2011-05-28T14:25:08Z</time>
      </trkpt>
      <trkpt lat="59.3005279" lon="18.4823315">
        <ele>18.8831</ele>
        <time>2011-05-28T14:25:13Z</time>
      </trkpt>
      <trkpt lat="59.3006718" lon="18.4822612">
        <ele>17.4412</ele>
        <time>2011-05-28T14:25:18Z</time>
      </trkpt>
      <trkpt lat="59.3008031" lon="18.4822195">
        <ele>14.557</ele>
        <time>2011-05-28T14:25:23Z</time>
      </trkpt>
      <trkpt lat="59.3009427" lon="18.4821439">
        <ele>13.5958</ele>
        <time>2011-05-28T14:25:28Z</time>
      </trkpt>
      <trkpt lat="59.3010635" lon="18.4820833">
        <ele>12.6344</ele>
        <time>2011-05-28T14:25:32Z</time>
      </trkpt>
      <trkpt lat="59.3010893" lon="18.4820765">
        <ele>12.1538</ele>
        <time>2011-05-28T14:25:33Z</time>
      </trkpt>
      <trkpt lat="59.3011662" lon="18.482096">
        <ele>11.6732</ele>
        <time>2011-05-28T14:25:36Z</time>
      </trkpt>
      <trkpt lat="59.301279" lon="18.4822252">
        <ele>10.2312</ele>
        <time>2011-05-28T14:25:41Z</time>
      </trkpt>
      <trkpt lat="59.3013824" lon="18.4824829">
        <ele>6.38586</ele>
        <time>2011-05-28T14:25:47Z</time>
      </trkpt>
      <trkpt lat="59.301451" lon="18.4827225">
        <ele>4.94385</ele>
        <time>2011-05-28T14:25:52Z</time>
      </trkpt>
      <trkpt lat="59.3015587" lon="18.4827658">
        <ele>4.94385</ele>
        <time>2011-05-28T14:25:57Z</time>
      </trkpt>
      <trkpt lat="59.301599" lon="18.4827023">
        <ele>5.42456</ele>
        <time>2011-05-28T14:25:59Z</time>
      </trkpt>
      <trkpt lat="59.3017383" lon="18.4824501">
        <ele>7.82788</ele>
        <time>2011-05-28T14:26:06Z</time>
      </trkpt>
      <trkpt lat="59.3018324" lon="18.4822578">
        <ele>7.82788</ele>
        <time>2011-05-28T14:26:11Z</time>
      </trkpt>
      <trkpt lat="59.3018824" lon="18.4821157">
        <ele>6.86646</ele>
        <time>2011-05-28T14:26:15Z</time>
      </trkpt>
      <trkpt lat="59.301983" lon="18.4818665">
        <ele>5.42456</ele>
        <time>2011-05-28T14:26:21Z</time>
      </trkpt>
      <trkpt lat="59.3020872" lon="18.4816169">
        <ele>6.86646</ele>
        <time>2011-05-28T14:26:27Z</time>
      </trkpt>
      <trkpt lat="59.3021854" lon="18.4814889">
        <ele>6.38586</ele>
        <time>2011-05-28T14:26:31Z</time>
      </trkpt>
      <trkpt lat="59.3022456" lon="18.4813169">
        <ele>7.34717</ele>
        <time>2011-05-28T14:26:35Z</time>
      </trkpt>
      <trkpt lat="59.3022621" lon="18.4812201">
        <ele>6.86646</ele>
        <time>2011-05-28T14:26:37Z</time>
      </trkpt>
      <trkpt lat="59.3022788" lon="18.4809898">
        <ele>7.82788</ele>
        <time>2011-05-28T14:26:42Z</time>
      </trkpt>
      <trkpt lat="59.3022867" lon="18.4808225">
        <ele>8.78918</ele>
        <time>2011-05-28T14:26:46Z</time>
      </trkpt>
      <trkpt lat="59.3022931" lon="18.4806561">
        <ele>9.75061</ele>
        <time>2011-05-28T14:26:49Z</time>
      </trkpt>
      <trkpt lat="59.3023062" lon="18.4804941">
        <ele>9.75061</ele>
        <time>2011-05-28T14:26:52Z</time>
      </trkpt>
      <trkpt lat="59.3023202" lon="18.4802801">
        <ele>11.1925</ele>
        <time>2011-05-28T14:26:56Z</time>
      </trkpt>
      <trkpt lat="59.3023235" lon="18.4802256">
        <ele>11.1925</ele>
        <time>2011-05-28T14:26:57Z</time>
      </trkpt>
      <trkpt lat="59.3023268" lon="18.4801201">
        <ele>11.6732</ele>
        <time>2011-05-28T14:26:59Z</time>
      </trkpt>
      <trkpt lat="59.3022773" lon="18.4799066">
        <ele>13.1151</ele>
        <time>2011-05-28T14:27:03Z</time>
      </trkpt>
      <trkpt lat="59.3022337" lon="18.4796336">
        <ele>14.557</ele>
        <time>2011-05-28T14:27:08Z</time>
      </trkpt>
      <trkpt lat="59.3022062" lon="18.4794232">
        <ele>16.9604</ele>
        <time>2011-05-28T14:27:12Z</time>
      </trkpt>
      <trkpt lat="59.3021608" lon="18.4791772">
        <ele>18.8831</ele>
        <time>2011-05-28T14:27:17Z</time>
      </trkpt>
      <trkpt lat="59.3021265" lon="18.4789481">
        <ele>19.3638</ele>
        <time>2011-05-28T14:27:22Z</time>
      </trkpt>
      <trkpt lat="59.302087" lon="18.4787534">
        <ele>19.8444</ele>
        <time>2011-05-28T14:27:26Z</time>
      </trkpt>
      <trkpt lat="59.3020434" lon="18.4786141">
        <ele>19.8444</ele>
        <time>2011-05-28T14:27:29Z</time>
      </trkpt>
      <trkpt lat="59.3019932" lon="18.4783142">
        <ele>19.8444</ele>
        <time>2011-05-28T14:27:36Z</time>
      </trkpt>
      <trkpt lat="59.3020234" lon="18.4780706">
        <ele>19.3638</ele>
        <time>2011-05-28T14:27:41Z</time>
      </trkpt>
      <trkpt lat="59.3020451" lon="18.4778563">
        <ele>17.4412</ele>
        <time>2011-05-28T14:27:45Z</time>
      </trkpt>
      <trkpt lat="59.3020787" lon="18.4777028">
        <ele>16.4797</ele>
        <time>2011-05-28T14:27:48Z</time>
      </trkpt>
      <trkpt lat="59.302089" lon="18.4776573">
        <ele>16.4797</ele>
        <time>2011-05-28T14:27:49Z</time>
      </trkpt>
      <trkpt lat="59.302155" lon="18.4774729">
        <ele>16.4797</ele>
        <time>2011-05-28T14:27:53Z</time>
      </trkpt>
      <trkpt lat="59.3022181" lon="18.4772339">
        <ele>15.0377</ele>
        <time>2011-05-28T14:27:58Z</time>
      </trkpt>
      <trkpt lat="59.3022358" lon="18.4770233">
        <ele>15.0377</ele>
        <time>2011-05-28T14:28:02Z</time>
      </trkpt>
      <trkpt lat="59.30218" lon="18.476725">
        <ele>15.5184</ele>
        <time>2011-05-28T14:28:08Z</time>
      </trkpt>
      <trkpt lat="59.3021069" lon="18.4764857">
        <ele>15.5184</ele>
        <time>2011-05-28T14:28:13Z</time>
      </trkpt>
      <trkpt lat="59.3020396" lon="18.4762654">
        <ele>15.999</ele>
        <time>2011-05-28T14:28:18Z</time>
      </trkpt>
      <trkpt lat="59.3019845" lon="18.4760703">
        <ele>16.4797</ele>
        <time>2011-05-28T14:28:22Z</time>
      </trkpt>
      <trkpt lat="59.3019168" lon="18.4758743">
        <ele>16.4797</ele>
        <time>2011-05-28T14:28:26Z</time>
      </trkpt>
      <trkpt lat="59.30186" lon="18.4756859">
        <ele>16.9604</ele>
        <time>2011-05-28T14:28:30Z</time>
      </trkpt>
      <trkpt lat="59.3018091" lon="18.4754677">
        <ele>18.4023</ele>
        <time>2011-05-28T14:28:35Z</time>
      </trkpt>
      <trkpt lat="59.3017618" lon="18.4752621">
        <ele>18.8831</ele>
        <time>2011-05-28T14:28:40Z</time>
      </trkpt>
      <trkpt lat="59.3017203" lon="18.4749796">
        <ele>20.8057</ele>
        <time>2011-05-28T14:28:46Z</time>
      </trkpt>
      <trkpt lat="59.3017115" lon="18.4749321">
        <ele>21.2864</ele>
        <time>2011-05-28T14:28:47Z</time>
      </trkpt>
      <trkpt lat="59.3017048" lon="18.4747258">
        <ele>20.8057</ele>
        <time>2011-05-28T14:28:51Z</time>
      </trkpt>
      <trkpt lat="59.3016971" lon="18.4744659">
        <ele>21.767</ele>
        <time>2011-05-28T14:28:56Z</time>
      </trkpt>
      <trkpt lat="59.3016936" lon="18.4742599">
        <ele>22.2476</ele>
        <time>2011-05-28T14:29:00Z</time>
      </trkpt>
      <trkpt lat="59.3016966" lon="18.4740265">
        <ele>22.2476</ele>
        <time>2011-05-28T14:29:05Z</time>
      </trkpt>
      <trkpt lat="59.3016982" lon="18.473785">
        <ele>22.7283</ele>
        <time>2011-05-28T14:29:10Z</time>
      </trkpt>
      <trkpt lat="59.3017034" lon="18.4736361">
        <ele>23.209</ele>
        <time>2011-05-28T14:29:13Z</time>
      </trkpt>
      <trkpt lat="59.3017111" lon="18.4733916">
        <ele>22.7283</ele>
        <time>2011-05-28T14:29:18Z</time>
      </trkpt>
      <trkpt lat="59.3017095" lon="18.4731008">
        <ele>22.7283</ele>
        <time>2011-05-28T14:29:24Z</time>
      </trkpt>
      <trkpt lat="59.3016956" lon="18.4728741">
        <ele>22.7283</ele>
        <time>2011-05-28T14:29:28Z</time>
      </trkpt>
      <trkpt lat="59.3016865" lon="18.4726626">
        <ele>22.7283</ele>
        <time>2011-05-28T14:29:32Z</time>
      </trkpt>
      <trkpt lat="59.3016878" lon="18.4726098">
        <ele>22.7283</ele>
        <time>2011-05-28T14:29:33Z</time>
      </trkpt>
      <trkpt lat="59.3016681" lon="18.4723645">
        <ele>21.767</ele>
        <time>2011-05-28T14:29:38Z</time>
      </trkpt>
      <trkpt lat="59.3016616" lon="18.4721147">
        <ele>22.2476</ele>
        <time>2011-05-28T14:29:43Z</time>
      </trkpt>
      <trkpt lat="59.3016573" lon="18.4719032">
        <ele>21.767</ele>
        <time>2011-05-28T14:29:47Z</time>
      </trkpt>
      <trkpt lat="59.3016629" lon="18.4716868">
        <ele>22.2476</ele>
        <time>2011-05-28T14:29:51Z</time>
      </trkpt>
      <trkpt lat="59.3016831" lon="18.4714193">
        <ele>21.767</ele>
        <time>2011-05-28T14:29:56Z</time>
      </trkpt>
      <trkpt lat="59.3017112" lon="18.4711678">
        <ele>20.8057</ele>
        <time>2011-05-28T14:30:01Z</time>
      </trkpt>
      <trkpt lat="59.3017411" lon="18.4709559">
        <ele>20.325</ele>
        <time>2011-05-28T14:30:05Z</time>
      </trkpt>
      <trkpt lat="59.3017369" lon="18.4707519">
        <ele>20.8057</ele>
        <time>2011-05-28T14:30:09Z</time>
      </trkpt>
      <trkpt lat="59.3017525" lon="18.4704965">
        <ele>20.325</ele>
        <time>2011-05-28T14:30:14Z</time>
      </trkpt>
      <trkpt lat="59.3017814" lon="18.4701849">
        <ele>19.8444</ele>
        <time>2011-05-28T14:30:20Z</time>
      </trkpt>
      <trkpt lat="59.3018082" lon="18.4699374">
        <ele>19.3638</ele>
        <time>2011-05-28T14:30:25Z</time>
      </trkpt>
      <trkpt lat="59.3018079" lon="18.4696773">
        <ele>18.8831</ele>
        <time>2011-05-28T14:30:30Z</time>
      </trkpt>
      <trkpt lat="59.3018105" lon="18.4694635">
        <ele>18.4023</ele>
        <time>2011-05-28T14:30:34Z</time>
      </trkpt>
      <trkpt lat="59.301826" lon="18.469194">
        <ele>19.3638</ele>
        <time>2011-05-28T14:30:39Z</time>
      </trkpt>
      <trkpt lat="59.3018407" lon="18.4690859">
        <ele>18.8831</ele>
        <time>2011-05-28T14:30:41Z</time>
      </trkpt>
      <trkpt lat="59.301835" lon="18.468805">
        <ele>19.8444</ele>
        <time>2011-05-28T14:30:46Z</time>
      </trkpt>
      <trkpt lat="59.3018324" lon="18.4685881">
        <ele>20.325</ele>
        <time>2011-05-28T14:30:50Z</time>
      </trkpt>
      <trkpt lat="59.3018621" lon="18.4683296">
        <ele>19.8444</ele>
        <time>2011-05-28T14:30:55Z</time>
      </trkpt>
      <trkpt lat="59.3018815" lon="18.4681375">
        <ele>19.3638</ele>
        <time>2011-05-28T14:30:59Z</time>
      </trkpt>
      <trkpt lat="59.3018898" lon="18.4678648">
        <ele>21.2864</ele>
        <time>2011-05-28T14:31:04Z</time>
      </trkpt>
      <trkpt lat="59.3018974" lon="18.4675235">
        <ele>21.767</ele>
        <time>2011-05-28T14:31:10Z</time>
      </trkpt>
      <trkpt lat="59.3018906" lon="18.4673127">
        <ele>22.7283</ele>
        <time>2011-05-28T14:31:14Z</time>
      </trkpt>
      <trkpt lat="59.301916" lon="18.4670853">
        <ele>22.7283</ele>
        <time>2011-05-28T14:31:18Z</time>
      </trkpt>
      <trkpt lat="59.3019265" lon="18.4668273">
        <ele>21.2864</ele>
        <time>2011-05-28T14:31:23Z</time>
      </trkpt>
      <trkpt lat="59.3019545" lon="18.4665977">
        <ele>21.2864</ele>
        <time>2011-05-28T14:31:27Z</time>
      </trkpt>
      <trkpt lat="59.3019886" lon="18.4663503">
        <ele>19.8444</ele>
        <time>2011-05-28T14:31:32Z</time>
      </trkpt>
      <trkpt lat="59.3020028" lon="18.466203">
        <ele>19.3638</ele>
        <time>2011-05-28T14:31:35Z</time>
      </trkpt>
      <trkpt lat="59.3020192" lon="18.465967">
        <ele>18.4023</ele>
        <time>2011-05-28T14:31:40Z</time>
      </trkpt>
      <trkpt lat="59.3020292" lon="18.4657276">
        <ele>16.9604</ele>
        <time>2011-05-28T14:31:45Z</time>
      </trkpt>
      <trkpt lat="59.3020612" lon="18.4654789">
        <ele>16.4797</ele>
        <time>2011-05-28T14:31:50Z</time>
      </trkpt>
      <trkpt lat="59.3020846" lon="18.4652249">
        <ele>15.999</ele>
        <time>2011-05-28T14:31:55Z</time>
      </trkpt>
      <trkpt lat="59.3021023" lon="18.4649491">
        <ele>17.4412</ele>
        <time>2011-05-28T14:32:00Z</time>
      </trkpt>
      <trkpt lat="59.3021028" lon="18.4646201">
        <ele>19.3638</ele>
        <time>2011-05-28T14:32:06Z</time>
      </trkpt>
      <trkpt lat="59.302116" lon="18.464344">
        <ele>19.3638</ele>
        <time>2011-05-28T14:32:11Z</time>
      </trkpt>
      <trkpt lat="59.302112" lon="18.4642931">
        <ele>19.3638</ele>
        <time>2011-05-28T14:32:12Z</time>
      </trkpt>
      <trkpt lat="59.3021264" lon="18.4639449">
        <ele>21.767</ele>
        <time>2011-05-28T14:32:19Z</time>
      </trkpt>
      <trkpt lat="59.3020856" lon="18.4636798">
        <ele>21.2864</ele>
        <time>2011-05-28T14:32:24Z</time>
      </trkpt>
      <trkpt lat="59.3020478" lon="18.4634127">
        <ele>20.325</ele>
        <time>2011-05-28T14:32:29Z</time>
      </trkpt>
      <trkpt lat="59.302039" lon="18.4631327">
        <ele>19.3638</ele>
        <time>2011-05-28T14:32:34Z</time>
      </trkpt>
      <trkpt lat="59.3020525" lon="18.4628351">
        <ele>18.4023</ele>
        <time>2011-05-28T14:32:39Z</time>
      </trkpt>
      <trkpt lat="59.3020642" lon="18.4626114">
        <ele>18.4023</ele>
        <time>2011-05-28T14:32:43Z</time>
      </trkpt>
      <trkpt lat="59.3020733" lon="18.4625532">
        <ele>18.4023</ele>
        <time>2011-05-28T14:32:44Z</time>
      </trkpt>
      <trkpt lat="59.3020707" lon="18.462377">
        <ele>17.9218</ele>
        <time>2011-05-28T14:32:47Z</time>
      </trkpt>
      <trkpt lat="59.3020781" lon="18.4621387">
        <ele>18.4023</ele>
        <time>2011-05-28T14:32:51Z</time>
      </trkpt>
      <trkpt lat="59.3020838" lon="18.4620145">
        <ele>18.4023</ele>
        <time>2011-05-28T14:32:53Z</time>
      </trkpt>
      <trkpt lat="59.3020929" lon="18.4617739">
        <ele>18.4023</ele>
        <time>2011-05-28T14:32:57Z</time>
      </trkpt>
      <trkpt lat="59.3021076" lon="18.4616616">
        <ele>18.4023</ele>
        <time>2011-05-28T14:32:59Z</time>
      </trkpt>
      <trkpt lat="59.3021377" lon="18.4613272">
        <ele>17.4412</ele>
        <time>2011-05-28T14:33:05Z</time>
      </trkpt>
      <trkpt lat="59.3021748" lon="18.4610961">
        <ele>15.5184</ele>
        <time>2011-05-28T14:33:09Z</time>
      </trkpt>
      <trkpt lat="59.3022026" lon="18.4609297">
        <ele>13.5958</ele>
        <time>2011-05-28T14:33:12Z</time>
      </trkpt>
      <trkpt lat="59.302216" lon="18.4607086">
        <ele>11.6732</ele>
        <time>2011-05-28T14:33:16Z</time>
      </trkpt>
      <trkpt lat="59.3022353" lon="18.4605385">
        <ele>10.2312</ele>
        <time>2011-05-28T14:33:19Z</time>
      </trkpt>
      <trkpt lat="59.3022185" lon="18.4602667">
        <ele>8.30859</ele>
        <time>2011-05-28T14:33:24Z</time>
      </trkpt>
      <trkpt lat="59.3021912" lon="18.459944">
        <ele>7.34717</ele>
        <time>2011-05-28T14:33:30Z</time>
      </trkpt>
      <trkpt lat="59.3021745" lon="18.4597404">
        <ele>7.34717</ele>
        <time>2011-05-28T14:33:34Z</time>
      </trkpt>
      <trkpt lat="59.3022323" lon="18.4595406">
        <ele>7.34717</ele>
        <time>2011-05-28T14:33:38Z</time>
      </trkpt>
      <trkpt lat="59.3023035" lon="18.4593944">
        <ele>6.38586</ele>
        <time>2011-05-28T14:33:42Z</time>
      </trkpt>
      <trkpt lat="59.3023783" lon="18.4592008">
        <ele>5.42456</ele>
        <time>2011-05-28T14:33:47Z</time>
      </trkpt>
      <trkpt lat="59.3024345" lon="18.4590562">
        <ele>3.98267</ele>
        <time>2011-05-28T14:33:51Z</time>
      </trkpt>
      <trkpt lat="59.302573" lon="18.4588795">
        <ele>3.98267</ele>
        <time>2011-05-28T14:33:57Z</time>
      </trkpt>
      <trkpt lat="59.3027233" lon="18.4587364">
        <ele>4.46326</ele>
        <time>2011-05-28T14:34:03Z</time>
      </trkpt>
      <trkpt lat="59.3028456" lon="18.4587257">
        <ele>5.42456</ele>
        <time>2011-05-28T14:34:08Z</time>
      </trkpt>
      <trkpt lat="59.3029477" lon="18.4587496">
        <ele>7.34717</ele>
        <time>2011-05-28T14:34:12Z</time>
      </trkpt>
      <trkpt lat="59.3030665" lon="18.4587928">
        <ele>7.82788</ele>
        <time>2011-05-28T14:34:17Z</time>
      </trkpt>
      <trkpt lat="59.3032023" lon="18.4588698">
        <ele>7.34717</ele>
        <time>2011-05-28T14:34:23Z</time>
      </trkpt>
      <trkpt lat="59.3033043" lon="18.4589266">
        <ele>7.82788</ele>
        <time>2011-05-28T14:34:27Z</time>
      </trkpt>
      <trkpt lat="59.3034379" lon="18.4590036">
        <ele>8.78918</ele>
        <time>2011-05-28T14:34:32Z</time>
      </trkpt>
      <trkpt lat="59.3035448" lon="18.4589962">
        <ele>7.82788</ele>
        <time>2011-05-28T14:34:37Z</time>
      </trkpt>
      <trkpt lat="59.3036638" lon="18.4589624">
        <ele>5.42456</ele>
        <time>2011-05-28T14:34:42Z</time>
      </trkpt>
      <trkpt lat="59.3038001" lon="18.4589909">
        <ele>6.38586</ele>
        <time>2011-05-28T14:34:47Z</time>
      </trkpt>
      <trkpt lat="59.3039208" lon="18.4591366">
        <ele>7.34717</ele>
        <time>2011-05-28T14:34:52Z</time>
      </trkpt>
      <trkpt lat="59.3039965" lon="18.4593794">
        <ele>8.78918</ele>
        <time>2011-05-28T14:34:57Z</time>
      </trkpt>
      <trkpt lat="59.3040121" lon="18.459428">
        <ele>9.2699</ele>
        <time>2011-05-28T14:34:58Z</time>
      </trkpt>
      <trkpt lat="59.3040489" lon="18.4597475">
        <ele>10.2312</ele>
        <time>2011-05-28T14:35:04Z</time>
      </trkpt>
      <trkpt lat="59.3040591" lon="18.4598589">
        <ele>10.2312</ele>
        <time>2011-05-28T14:35:06Z</time>
      </trkpt>
      <trkpt lat="59.3040841" lon="18.4601051">
        <ele>12.1538</ele>
        <time>2011-05-28T14:35:11Z</time>
      </trkpt>
      <trkpt lat="59.3041039" lon="18.4603589">
        <ele>12.1538</ele>
        <time>2011-05-28T14:35:16Z</time>
      </trkpt>
      <trkpt lat="59.3041358" lon="18.4605791">
        <ele>13.1151</ele>
        <time>2011-05-28T14:35:20Z</time>
      </trkpt>
      <trkpt lat="59.3041928" lon="18.4608925">
        <ele>13.1151</ele>
        <time>2011-05-28T14:35:26Z</time>
      </trkpt>
      <trkpt lat="59.3043085" lon="18.4611052">
        <ele>11.6732</ele>
        <time>2011-05-28T14:35:32Z</time>
      </trkpt>
      <trkpt lat="59.3044166" lon="18.4611489">
        <ele>12.1538</ele>
        <time>2011-05-28T14:35:37Z</time>
      </trkpt>
      <trkpt lat="59.3045181" lon="18.4611613">
        <ele>12.6344</ele>
        <time>2011-05-28T14:35:42Z</time>
      </trkpt>
      <trkpt lat="59.304632" lon="18.461242">
        <ele>14.0764</ele>
        <time>2011-05-28T14:35:47Z</time>
      </trkpt>
      <trkpt lat="59.3046954" lon="18.4614737">
        <ele>14.0764</ele>
        <time>2011-05-28T14:35:52Z</time>
      </trkpt>
      <trkpt lat="59.3047246" lon="18.4616905">
        <ele>14.0764</ele>
        <time>2011-05-28T14:35:56Z</time>
      </trkpt>
      <trkpt lat="59.3047782" lon="18.4620268">
        <ele>14.0764</ele>
        <time>2011-05-28T14:36:02Z</time>
      </trkpt>
      <trkpt lat="59.3047943" lon="18.4622488">
        <ele>15.0377</ele>
        <time>2011-05-28T14:36:06Z</time>
      </trkpt>
      <trkpt lat="59.3048063" lon="18.4626041">
        <ele>15.0377</ele>
        <time>2011-05-28T14:36:12Z</time>
      </trkpt>
      <trkpt lat="59.3047972" lon="18.4628112">
        <ele>15.5184</ele>
        <time>2011-05-28T14:36:16Z</time>
      </trkpt>
      <trkpt lat="59.3047775" lon="18.4629594">
        <ele>15.0377</ele>
        <time>2011-05-28T14:36:19Z</time>
      </trkpt>
      <trkpt lat="59.3047285" lon="18.4632081">
        <ele>13.5958</ele>
        <time>2011-05-28T14:36:24Z</time>
      </trkpt>
      <trkpt lat="59.3046718" lon="18.4634723">
        <ele>11.6732</ele>
        <time>2011-05-28T14:36:29Z</time>
      </trkpt>
      <trkpt lat="59.3046182" lon="18.4637303">
        <ele>9.2699</ele>
        <time>2011-05-28T14:36:34Z</time>
      </trkpt>
      <trkpt lat="59.3045829" lon="18.4640069">
        <ele>9.2699</ele>
        <time>2011-05-28T14:36:39Z</time>
      </trkpt>
      <trkpt lat="59.3045708" lon="18.4641144">
        <ele>8.78918</ele>
        <time>2011-05-28T14:36:41Z</time>
      </trkpt>
      <trkpt lat="59.3045802" lon="18.4643834">
        <ele>8.30859</ele>
        <time>2011-05-28T14:36:46Z</time>
      </trkpt>
      <trkpt lat="59.3046032" lon="18.4646474">
        <ele>6.38586</ele>
        <time>2011-05-28T14:36:51Z</time>
      </trkpt>
      <trkpt lat="59.3046606" lon="18.4649262">
        <ele>4.94385</ele>
        <time>2011-05-28T14:36:56Z</time>
      </trkpt>
      <trkpt lat="59.3046747" lon="18.464975">
        <ele>4.46326</ele>
        <time>2011-05-28T14:36:57Z</time>
      </trkpt>
      <trkpt lat="59.3047615" lon="18.4652659">
        <ele>2.54065</ele>
        <time>2011-05-28T14:37:03Z</time>
      </trkpt>
      <trkpt lat="59.3048381" lon="18.4654909">
        <ele>1.57935</ele>
        <time>2011-05-28T14:37:08Z</time>
      </trkpt>
      <trkpt lat="59.3049179" lon="18.465701">
        <ele>2.06006</ele>
        <time>2011-05-28T14:37:13Z</time>
      </trkpt>
      <trkpt lat="59.3049983" lon="18.4659109">
        <ele>1.57935</ele>
        <time>2011-05-28T14:37:18Z</time>
      </trkpt>
      <trkpt lat="59.3050626" lon="18.4661083">
        <ele>1.09863</ele>
        <time>2011-05-28T14:37:23Z</time>
      </trkpt>
      <trkpt lat="59.3051227" lon="18.4662767">
        <ele>0.618042</ele>
        <time>2011-05-28T14:37:27Z</time>
      </trkpt>
      <trkpt lat="59.3052122" lon="18.4664921">
        <ele>2.06006</ele>
        <time>2011-05-28T14:37:32Z</time>
      </trkpt>
      <trkpt lat="59.3052996" lon="18.4666638">
        <ele>4.46326</ele>
        <time>2011-05-28T14:37:37Z</time>
      </trkpt>
      <trkpt lat="59.3053956" lon="18.4668564">
        <ele>7.34717</ele>
        <time>2011-05-28T14:37:42Z</time>
      </trkpt>
      <trkpt lat="59.3054939" lon="18.4670321">
        <ele>8.78918</ele>
        <time>2011-05-28T14:37:47Z</time>
      </trkpt>
      <trkpt lat="59.3056162" lon="18.4672416">
        <ele>10.7118</ele>
        <time>2011-05-28T14:37:53Z</time>
      </trkpt>
      <trkpt lat="59.3056982" lon="18.467409">
        <ele>13.1151</ele>
        <time>2011-05-28T14:37:58Z</time>
      </trkpt>
      <trkpt lat="59.3057288" lon="18.4674723">
        <ele>12.6344</ele>
        <time>2011-05-28T14:38:00Z</time>
      </trkpt>
      <trkpt lat="59.3058308" lon="18.4676645">
        <ele>10.7118</ele>
        <time>2011-05-28T14:38:05Z</time>
      </trkpt>
      <trkpt lat="59.3059197" lon="18.4678105">
        <ele>9.2699</ele>
        <time>2011-05-28T14:38:09Z</time>
      </trkpt>
      <trkpt lat="59.3059893" lon="18.4679474">
        <ele>7.82788</ele>
        <time>2011-05-28T14:38:13Z</time>
      </trkpt>
      <trkpt lat="59.3060158" lon="18.4680156">
        <ele>5.90527</ele>
        <time>2011-05-28T14:38:15Z</time>
      </trkpt>
      <trkpt lat="59.3061011" lon="18.4682131">
        <ele>7.34717</ele>
        <time>2011-05-28T14:38:20Z</time>
      </trkpt>
      <trkpt lat="59.3061961" lon="18.4683656">
        <ele>9.2699</ele>
        <time>2011-05-28T14:38:24Z</time>
      </trkpt>
      <trkpt lat="59.306369" lon="18.4684146">
        <ele>10.7118</ele>
        <time>2011-05-28T14:38:30Z</time>
      </trkpt>
      <trkpt lat="59.3064364" lon="18.4683736">
        <ele>11.1925</ele>
        <time>2011-05-28T14:38:33Z</time>
      </trkpt>
      <trkpt lat="59.3066136" lon="18.4682513">
        <ele>11.6732</ele>
        <time>2011-05-28T14:38:40Z</time>
      </trkpt>
      <trkpt lat="59.3067107" lon="18.4682626">
        <ele>12.1538</ele>
        <time>2011-05-28T14:38:44Z</time>
      </trkpt>
      <trkpt lat="59.3068699" lon="18.4684063">
        <ele>12.6344</ele>
        <time>2011-05-28T14:38:50Z</time>
      </trkpt>
      <trkpt lat="59.3069849" lon="18.4685886">
        <ele>14.0764</ele>
        <time>2011-05-28T14:38:56Z</time>
      </trkpt>
      <trkpt lat="59.30706" lon="18.4687579">
        <ele>15.0377</ele>
        <time>2011-05-28T14:39:01Z</time>
      </trkpt>
      <trkpt lat="59.3071197" lon="18.4689093">
        <ele>16.4797</ele>
        <time>2011-05-28T14:39:05Z</time>
      </trkpt>
      <trkpt lat="59.3071815" lon="18.4690797">
        <ele>17.9218</ele>
        <time>2011-05-28T14:39:09Z</time>
      </trkpt>
      <trkpt lat="59.3072538" lon="18.4693354">
        <ele>20.8057</ele>
        <time>2011-05-28T14:39:14Z</time>
      </trkpt>
      <trkpt lat="59.3072833" lon="18.469506">
        <ele>22.7283</ele>
        <time>2011-05-28T14:39:18Z</time>
      </trkpt>
      <trkpt lat="59.3073205" lon="18.469713">
        <ele>23.209</ele>
        <time>2011-05-28T14:39:23Z</time>
      </trkpt>
      <trkpt lat="59.3073373" lon="18.4698437">
        <ele>21.767</ele>
        <time>2011-05-28T14:39:26Z</time>
      </trkpt>
      <trkpt lat="59.3073611" lon="18.470009">
        <ele>20.8057</ele>
        <time>2011-05-28T14:39:30Z</time>
      </trkpt>
      <trkpt lat="59.3073937" lon="18.4703071">
        <ele>20.8057</ele>
        <time>2011-05-28T14:39:36Z</time>
      </trkpt>
      <trkpt lat="59.3074571" lon="18.4705486">
        <ele>19.3638</ele>
        <time>2011-05-28T14:39:41Z</time>
      </trkpt>
      <trkpt lat="59.3075348" lon="18.4708024">
        <ele>19.3638</ele>
        <time>2011-05-28T14:39:46Z</time>
      </trkpt>
      <trkpt lat="59.3075945" lon="18.4710385">
        <ele>17.4412</ele>
        <time>2011-05-28T14:39:51Z</time>
      </trkpt>
      <trkpt lat="59.3076688" lon="18.4712806">
        <ele>15.0377</ele>
        <time>2011-05-28T14:39:56Z</time>
      </trkpt>
      <trkpt lat="59.3076812" lon="18.4713335">
        <ele>15.0377</ele>
        <time>2011-05-28T14:39:57Z</time>
      </trkpt>
      <trkpt lat="59.3077292" lon="18.4715955">
        <ele>14.0764</ele>
        <time>2011-05-28T14:40:02Z</time>
      </trkpt>
      <trkpt lat="59.3076541" lon="18.4718925">
        <ele>15.0377</ele>
        <time>2011-05-28T14:40:08Z</time>
      </trkpt>
      <trkpt lat="59.3075696" lon="18.4720405">
        <ele>15.999</ele>
        <time>2011-05-28T14:40:12Z</time>
      </trkpt>
      <trkpt lat="59.3074745" lon="18.4722364">
        <ele>15.999</ele>
        <time>2011-05-28T14:40:17Z</time>
      </trkpt>
      <trkpt lat="59.3073703" lon="18.472437">
        <ele>15.999</ele>
        <time>2011-05-28T14:40:22Z</time>
      </trkpt>
      <trkpt lat="59.3072948" lon="18.4725854">
        <ele>16.4797</ele>
        <time>2011-05-28T14:40:26Z</time>
      </trkpt>
      <trkpt lat="59.3072056" lon="18.4727745">
        <ele>17.4412</ele>
        <time>2011-05-28T14:40:31Z</time>
      </trkpt>
      <trkpt lat="59.3071386" lon="18.4729114">
        <ele>17.4412</ele>
        <time>2011-05-28T14:40:35Z</time>
      </trkpt>
      <trkpt lat="59.3070425" lon="18.4731259">
        <ele>18.8831</ele>
        <time>2011-05-28T14:40:40Z</time>
      </trkpt>
      <trkpt lat="59.3069264" lon="18.4733708">
        <ele>18.4023</ele>
        <time>2011-05-28T14:40:46Z</time>
      </trkpt>
      <trkpt lat="59.306831" lon="18.4735666">
        <ele>17.9218</ele>
        <time>2011-05-28T14:40:51Z</time>
      </trkpt>
      <trkpt lat="59.3067306" lon="18.4738742">
        <ele>17.9218</ele>
        <time>2011-05-28T14:40:58Z</time>
      </trkpt>
      <trkpt lat="59.306653" lon="18.4742275">
        <ele>18.4023</ele>
        <time>2011-05-28T14:41:05Z</time>
      </trkpt>
      <trkpt lat="59.3065906" lon="18.4744621">
        <ele>18.4023</ele>
        <time>2011-05-28T14:41:10Z</time>
      </trkpt>
      <trkpt lat="59.3065335" lon="18.4747026">
        <ele>18.4023</ele>
        <time>2011-05-28T14:41:15Z</time>
      </trkpt>
      <trkpt lat="59.3064556" lon="18.4750472">
        <ele>17.9218</ele>
        <time>2011-05-28T14:41:22Z</time>
      </trkpt>
      <trkpt lat="59.3063644" lon="18.4753963">
        <ele>17.9218</ele>
        <time>2011-05-28T14:41:29Z</time>
      </trkpt>
      <trkpt lat="59.3062997" lon="18.4756761">
        <ele>17.4412</ele>
        <time>2011-05-28T14:41:35Z</time>
      </trkpt>
      <trkpt lat="59.3062204" lon="18.4759973">
        <ele>16.9604</ele>
        <time>2011-05-28T14:41:41Z</time>
      </trkpt>
      <trkpt lat="59.306169" lon="18.4762493">
        <ele>16.4797</ele>
        <time>2011-05-28T14:41:46Z</time>
      </trkpt>
      <trkpt lat="59.3061369" lon="18.4764686">
        <ele>16.9604</ele>
        <time>2011-05-28T14:41:50Z</time>
      </trkpt>
      <trkpt lat="59.3060784" lon="18.4767406">
        <ele>16.9604</ele>
        <time>2011-05-28T14:41:55Z</time>
      </trkpt>
      <trkpt lat="59.3060365" lon="18.4769445">
        <ele>16.4797</ele>
        <time>2011-05-28T14:41:59Z</time>
      </trkpt>
      <trkpt lat="59.3059857" lon="18.4772549">
        <ele>15.999</ele>
        <time>2011-05-28T14:42:05Z</time>
      </trkpt>
      <trkpt lat="59.3059433" lon="18.4774517">
        <ele>13.5958</ele>
        <time>2011-05-28T14:42:09Z</time>
      </trkpt>
      <trkpt lat="59.305878" lon="18.4776171">
        <ele>11.6732</ele>
        <time>2011-05-28T14:42:13Z</time>
      </trkpt>
      <trkpt lat="59.3057827" lon="18.4779317">
        <ele>12.1538</ele>
        <time>2011-05-28T14:42:19Z</time>
      </trkpt>
      <trkpt lat="59.3056714" lon="18.4782577">
        <ele>9.2699</ele>
        <time>2011-05-28T14:42:26Z</time>
      </trkpt>
      <trkpt lat="59.3055914" lon="18.4785464">
        <ele>7.82788</ele>
        <time>2011-05-28T14:42:32Z</time>
      </trkpt>
      <trkpt lat="59.305535" lon="18.4788719">
        <ele>6.86646</ele>
        <time>2011-05-28T14:42:38Z</time>
      </trkpt>
      <trkpt lat="59.3054942" lon="18.4791346">
        <ele>6.38586</ele>
        <time>2011-05-28T14:42:43Z</time>
      </trkpt>
      <trkpt lat="59.3054454" lon="18.4793835">
        <ele>5.42456</ele>
        <time>2011-05-28T14:42:48Z</time>
      </trkpt>
      <trkpt lat="59.3053765" lon="18.4797362">
        <ele>4.94385</ele>
        <time>2011-05-28T14:42:55Z</time>
      </trkpt>
      <trkpt lat="59.3053281" lon="18.4800558">
        <ele>3.98267</ele>
        <time>2011-05-28T14:43:01Z</time>
      </trkpt>
      <trkpt lat="59.3052827" lon="18.4802614">
        <ele>3.50195</ele>
        <time>2011-05-28T14:43:05Z</time>
      </trkpt>
      <trkpt lat="59.3052461" lon="18.480534">
        <ele>4.94385</ele>
        <time>2011-05-28T14:43:10Z</time>
      </trkpt>
      <trkpt lat="59.3052102" lon="18.4807875">
        <ele>6.86646</ele>
        <time>2011-05-28T14:43:15Z</time>
      </trkpt>
      <trkpt lat="59.3051895" lon="18.4809799">
        <ele>8.30859</ele>
        <time>2011-05-28T14:43:19Z</time>
      </trkpt>
      <trkpt lat="59.3051606" lon="18.4812171">
        <ele>10.2312</ele>
        <time>2011-05-28T14:43:24Z</time>
      </trkpt>
      <trkpt lat="59.3051341" lon="18.4814192">
        <ele>10.7118</ele>
        <time>2011-05-28T14:43:28Z</time>
      </trkpt>
      <trkpt lat="59.3051046" lon="18.481674">
        <ele>10.7118</ele>
        <time>2011-05-28T14:43:33Z</time>
      </trkpt>
      <trkpt lat="59.3050728" lon="18.4819862">
        <ele>11.6732</ele>
        <time>2011-05-28T14:43:39Z</time>
      </trkpt>
      <trkpt lat="59.3050019" lon="18.482283">
        <ele>11.1925</ele>
        <time>2011-05-28T14:43:45Z</time>
      </trkpt>
      <trkpt lat="59.3049351" lon="18.4825723">
        <ele>9.75061</ele>
        <time>2011-05-28T14:43:51Z</time>
      </trkpt>
      <trkpt lat="59.3048873" lon="18.4828866">
        <ele>6.86646</ele>
        <time>2011-05-28T14:43:57Z</time>
      </trkpt>
      <trkpt lat="59.3048984" lon="18.4831693">
        <ele>4.46326</ele>
        <time>2011-05-28T14:44:02Z</time>
      </trkpt>
      <trkpt lat="59.3049371" lon="18.4834222">
        <ele>3.50195</ele>
        <time>2011-05-28T14:44:07Z</time>
      </trkpt>
      <trkpt lat="59.3049446" lon="18.4836688">
        <ele>2.54065</ele>
        <time>2011-05-28T14:44:12Z</time>
      </trkpt>
      <trkpt lat="59.3049515" lon="18.4839129">
        <ele>2.06006</ele>
        <time>2011-05-28T14:44:17Z</time>
      </trkpt>
      <trkpt lat="59.304947" lon="18.4842206">
        <ele>2.54065</ele>
        <time>2011-05-28T14:44:23Z</time>
      </trkpt>
      <trkpt lat="59.304901" lon="18.4844954">
        <ele>3.02124</ele>
        <time>2011-05-28T14:44:28Z</time>
      </trkpt>
      <trkpt lat="59.3048717" lon="18.4846871">
        <ele>3.98267</ele>
        <time>2011-05-28T14:44:32Z</time>
      </trkpt>
      <trkpt lat="59.3048396" lon="18.4848784">
        <ele>3.98267</ele>
        <time>2011-05-28T14:44:36Z</time>
      </trkpt>
      <trkpt lat="59.3048517" lon="18.4850922">
        <ele>4.94385</ele>
        <time>2011-05-28T14:44:40Z</time>
      </trkpt>
      <trkpt lat="59.3048414" lon="18.485303">
        <ele>3.98267</ele>
        <time>2011-05-28T14:44:44Z</time>
      </trkpt>
      <trkpt lat="59.3048241" lon="18.4854157">
        <ele>3.98267</ele>
        <time>2011-05-28T14:44:46Z</time>
      </trkpt>
      <trkpt lat="59.3048161" lon="18.4857419">
        <ele>3.98267</ele>
        <time>2011-05-28T14:44:52Z</time>
      </trkpt>
      <trkpt lat="59.3048031" lon="18.4858369">
        <ele>3.02124</ele>
        <time>2011-05-28T14:44:54Z</time>
      </trkpt>
      <trkpt lat="59.3048015" lon="18.4861507">
        <ele>1.57935</ele>
        <time>2011-05-28T14:45:00Z</time>
      </trkpt>
      <trkpt lat="59.3047944" lon="18.4862002">
        <ele>1.09863</ele>
        <time>2011-05-28T14:45:01Z</time>
      </trkpt>
      <trkpt lat="59.3048088" lon="18.4864348">
        <ele>0.137451</ele>
        <time>2011-05-28T14:45:06Z</time>
      </trkpt>
      <trkpt lat="59.3048081" lon="18.4866324">
        <ele>0.618042</ele>
        <time>2011-05-28T14:45:10Z</time>
      </trkpt>
      <trkpt lat="59.3048018" lon="18.4869769">
        <ele>0</ele>
        <time>2011-05-28T14:45:16Z</time>
      </trkpt>
      <trkpt lat="59.304789" lon="18.4872424">
        <ele>0</ele>
        <time>2011-05-28T14:45:21Z</time>
      </trkpt>
      <trkpt lat="59.3047808" lon="18.4875015">
        <ele>0</ele>
        <time>2011-05-28T14:45:26Z</time>
      </trkpt>
      <trkpt lat="59.3048003" lon="18.4877178">
        <ele>0</ele>
        <time>2011-05-28T14:45:30Z</time>
      </trkpt>
      <trkpt lat="59.3047518" lon="18.4880398">
        <ele>0</ele>
        <time>2011-05-28T14:45:36Z</time>
      </trkpt>
      <trkpt lat="59.3047046" lon="18.4881999">
        <ele>0</ele>
        <time>2011-05-28T14:45:39Z</time>
      </trkpt>
      <trkpt lat="59.3046961" lon="18.488447">
        <ele>0</ele>
        <time>2011-05-28T14:45:44Z</time>
      </trkpt>
      <trkpt lat="59.3046861" lon="18.4887096">
        <ele>0</ele>
        <time>2011-05-28T14:45:49Z</time>
      </trkpt>
      <trkpt lat="59.3046819" lon="18.4889251">
        <ele>0</ele>
        <time>2011-05-28T14:45:53Z</time>
      </trkpt>
      <trkpt lat="59.3046869" lon="18.4890862">
        <ele>0</ele>
        <time>2011-05-28T14:45:56Z</time>
      </trkpt>
      <trkpt lat="59.3046892" lon="18.4892868">
        <ele>0</ele>
        <time>2011-05-28T14:46:00Z</time>
      </trkpt>
      <trkpt lat="59.3046979" lon="18.4894892">
        <ele>0</ele>
        <time>2011-05-28T14:46:04Z</time>
      </trkpt>
      <trkpt lat="59.304678" lon="18.4897535">
        <ele>0</ele>
        <time>2011-05-28T14:46:09Z</time>
      </trkpt>
      <trkpt lat="59.3046412" lon="18.4900875">
        <ele>0</ele>
        <time>2011-05-28T14:46:15Z</time>
      </trkpt>
      <trkpt lat="59.3045979" lon="18.4903728">
        <ele>0</ele>
        <time>2011-05-28T14:46:20Z</time>
      </trkpt>
      <trkpt lat="59.3045689" lon="18.4906391">
        <ele>0</ele>
        <time>2011-05-28T14:46:25Z</time>
      </trkpt>
      <trkpt lat="59.3045442" lon="18.4909242">
        <ele>0</ele>
        <time>2011-05-28T14:46:30Z</time>
      </trkpt>
      <trkpt lat="59.3045275" lon="18.4911464">
        <ele>0</ele>
        <time>2011-05-28T14:46:34Z</time>
      </trkpt>
      <trkpt lat="59.3045233" lon="18.4914012">
        <ele>0</ele>
        <time>2011-05-28T14:46:39Z</time>
      </trkpt>
      <trkpt lat="59.3045316" lon="18.4916647">
        <ele>0</ele>
        <time>2011-05-28T14:46:44Z</time>
      </trkpt>
      <trkpt lat="59.3044962" lon="18.4920181">
        <ele>0</ele>
        <time>2011-05-28T14:46:51Z</time>
      </trkpt>
      <trkpt lat="59.3044864" lon="18.492068">
        <ele>0</ele>
        <time>2011-05-28T14:46:52Z</time>
      </trkpt>
      <trkpt lat="59.3044618" lon="18.4923957">
        <ele>0.137451</ele>
        <time>2011-05-28T14:46:58Z</time>
      </trkpt>
      <trkpt lat="59.3044312" lon="18.492546">
        <ele>1.09863</ele>
        <time>2011-05-28T14:47:01Z</time>
      </trkpt>
      <trkpt lat="59.3044131" lon="18.4926574">
        <ele>2.06006</ele>
        <time>2011-05-28T14:47:03Z</time>
      </trkpt>
      <trkpt lat="59.3043577" lon="18.492933">
        <ele>3.02124</ele>
        <time>2011-05-28T14:47:08Z</time>
      </trkpt>
      <trkpt lat="59.3043216" lon="18.4931769">
        <ele>3.98267</ele>
        <time>2011-05-28T14:47:13Z</time>
      </trkpt>
      <trkpt lat="59.304271" lon="18.4934045">
        <ele>5.42456</ele>
        <time>2011-05-28T14:47:18Z</time>
      </trkpt>
      <trkpt lat="59.3042357" lon="18.4935436">
        <ele>8.78918</ele>
        <time>2011-05-28T14:47:21Z</time>
      </trkpt>
      <trkpt lat="59.304154" lon="18.4938757">
        <ele>10.7118</ele>
        <time>2011-05-28T14:47:28Z</time>
      </trkpt>
      <trkpt lat="59.3041061" lon="18.4941042">
        <ele>9.75061</ele>
        <time>2011-05-28T14:47:33Z</time>
      </trkpt>
      <trkpt lat="59.3040574" lon="18.4943257">
        <ele>7.34717</ele>
        <time>2011-05-28T14:47:38Z</time>
      </trkpt>
      <trkpt lat="59.3040183" lon="18.4944808">
        <ele>5.90527</ele>
        <time>2011-05-28T14:47:42Z</time>
      </trkpt>
      <trkpt lat="59.3039426" lon="18.4947042">
        <ele>3.98267</ele>
        <time>2011-05-28T14:47:47Z</time>
      </trkpt>
      <trkpt lat="59.3038783" lon="18.4949378">
        <ele>3.98267</ele>
        <time>2011-05-28T14:47:52Z</time>
      </trkpt>
      <trkpt lat="59.3038127" lon="18.4951599">
        <ele>3.02124</ele>
        <time>2011-05-28T14:47:57Z</time>
      </trkpt>
      <trkpt lat="59.3037846" lon="18.4953987">
        <ele>3.50195</ele>
        <time>2011-05-28T14:48:02Z</time>
      </trkpt>
      <trkpt lat="59.303742" lon="18.4956487">
        <ele>6.38586</ele>
        <time>2011-05-28T14:48:07Z</time>
      </trkpt>
      <trkpt lat="59.3037173" lon="18.495866">
        <ele>7.82788</ele>
        <time>2011-05-28T14:48:11Z</time>
      </trkpt>
      <trkpt lat="59.3036991" lon="18.4960833">
        <ele>9.2699</ele>
        <time>2011-05-28T14:48:15Z</time>
      </trkpt>
      <trkpt lat="59.3036686" lon="18.496341">
        <ele>9.2699</ele>
        <time>2011-05-28T14:48:20Z</time>
      </trkpt>
      <trkpt lat="59.3036479" lon="18.4966534">
        <ele>11.1925</ele>
        <time>2011-05-28T14:48:26Z</time>
      </trkpt>
      <trkpt lat="59.3036233" lon="18.4969287">
        <ele>11.1925</ele>
        <time>2011-05-28T14:48:31Z</time>
      </trkpt>
      <trkpt lat="59.3035655" lon="18.4972599">
        <ele>10.7118</ele>
        <time>2011-05-28T14:48:37Z</time>
      </trkpt>
      <trkpt lat="59.3035213" lon="18.4974626">
        <ele>10.2312</ele>
        <time>2011-05-28T14:48:41Z</time>
      </trkpt>
      <trkpt lat="59.3034884" lon="18.497668">
        <ele>9.75061</ele>
        <time>2011-05-28T14:48:45Z</time>
      </trkpt>
      <trkpt lat="59.303436" lon="18.4979239">
        <ele>9.75061</ele>
        <time>2011-05-28T14:48:50Z</time>
      </trkpt>
      <trkpt lat="59.303393" lon="18.498172">
        <ele>10.2312</ele>
        <time>2011-05-28T14:48:55Z</time>
      </trkpt>
      <trkpt lat="59.3033799" lon="18.4982694">
        <ele>10.7118</ele>
        <time>2011-05-28T14:48:57Z</time>
      </trkpt>
      <trkpt lat="59.3033531" lon="18.4985822">
        <ele>12.1538</ele>
        <time>2011-05-28T14:49:03Z</time>
      </trkpt>
      <trkpt lat="59.3033438" lon="18.4986264">
        <ele>12.6344</ele>
        <time>2011-05-28T14:49:04Z</time>
      </trkpt>
      <trkpt lat="59.3033024" lon="18.4988646">
        <ele>15.5184</ele>
        <time>2011-05-28T14:49:09Z</time>
      </trkpt>
      <trkpt lat="59.3032904" lon="18.4989693">
        <ele>15.999</ele>
        <time>2011-05-28T14:49:11Z</time>
      </trkpt>
      <trkpt lat="59.3032604" lon="18.4992678">
        <ele>18.8831</ele>
        <time>2011-05-28T14:49:17Z</time>
      </trkpt>
      <trkpt lat="59.3032185" lon="18.4994592">
        <ele>21.2864</ele>
        <time>2011-05-28T14:49:21Z</time>
      </trkpt>
      <trkpt lat="59.3031932" lon="18.4997241">
        <ele>26.0929</ele>
        <time>2011-05-28T14:49:26Z</time>
      </trkpt>
      <trkpt lat="59.3031512" lon="18.4999639">
        <ele>29.4575</ele>
        <time>2011-05-28T14:49:31Z</time>
      </trkpt>
      <trkpt lat="59.3031475" lon="18.5002222">
        <ele>30.8995</ele>
        <time>2011-05-28T14:49:36Z</time>
      </trkpt>
      <trkpt lat="59.3030922" lon="18.5004005">
        <ele>26.5736</ele>
        <time>2011-05-28T14:49:40Z</time>
      </trkpt>
      <trkpt lat="59.3030412" lon="18.5006387">
        <ele>24.1703</ele>
        <time>2011-05-28T14:49:45Z</time>
      </trkpt>
      <trkpt lat="59.3029962" lon="18.5008754">
        <ele>22.7283</ele>
        <time>2011-05-28T14:49:50Z</time>
      </trkpt>
      <trkpt lat="59.3029458" lon="18.5010989">
        <ele>23.209</ele>
        <time>2011-05-28T14:49:55Z</time>
      </trkpt>
      <trkpt lat="59.3029199" lon="18.5012977">
        <ele>23.6896</ele>
        <time>2011-05-28T14:49:59Z</time>
      </trkpt>
      <trkpt lat="59.3029192" lon="18.5013971">
        <ele>23.209</ele>
        <time>2011-05-28T14:50:01Z</time>
      </trkpt>
      <trkpt lat="59.3028843" lon="18.5015795">
        <ele>22.7283</ele>
        <time>2011-05-28T14:50:05Z</time>
      </trkpt>
      <trkpt lat="59.302818" lon="18.5018748">
        <ele>22.7283</ele>
        <time>2011-05-28T14:50:11Z</time>
      </trkpt>
      <trkpt lat="59.3027983" lon="18.5019703">
        <ele>22.7283</ele>
        <time>2011-05-28T14:50:13Z</time>
      </trkpt>
      <trkpt lat="59.3027279" lon="18.502077">
        <ele>23.209</ele>
        <time>2011-05-28T14:50:17Z</time>
      </trkpt>
      <trkpt lat="59.302647" lon="18.5020022">
        <ele>23.209</ele>
        <time>2011-05-28T14:50:20Z</time>
      </trkpt>
      <trkpt lat="59.3025614" lon="18.5019252">
        <ele>22.2476</ele>
        <time>2011-05-28T14:50:23Z</time>
      </trkpt>
      <trkpt lat="59.3025371" lon="18.5018457">
        <ele>23.209</ele>
        <time>2011-05-28T14:50:25Z</time>
      </trkpt>
      <trkpt lat="59.3024802" lon="18.5016635">
        <ele>23.209</ele>
        <time>2011-05-28T14:50:29Z</time>
      </trkpt>
      <trkpt lat="59.302401" lon="18.5014712">
        <ele>22.2476</ele>
        <time>2011-05-28T14:50:33Z</time>
      </trkpt>
      <trkpt lat="59.30239" lon="18.5014268">
        <ele>22.2476</ele>
        <time>2011-05-28T14:50:34Z</time>
      </trkpt>
      <trkpt lat="59.3023197" lon="18.5011679">
        <ele>21.767</ele>
        <time>2011-05-28T14:50:40Z</time>
      </trkpt>
      <trkpt lat="59.3022565" lon="18.5009889">
        <ele>22.7283</ele>
        <time>2011-05-28T14:50:44Z</time>
      </trkpt>
      <trkpt lat="59.302196" lon="18.5007894">
        <ele>22.7283</ele>
        <time>2011-05-28T14:50:49Z</time>
      </trkpt>
      <trkpt lat="59.3020895" lon="18.5005696">
        <ele>21.767</ele>
        <time>2011-05-28T14:50:54Z</time>
      </trkpt>
      <trkpt lat="59.3020601" lon="18.5004765">
        <ele>21.767</ele>
        <time>2011-05-28T14:50:56Z</time>
      </trkpt>
      <trkpt lat="59.302001" lon="18.500274">
        <ele>20.8057</ele>
        <time>2011-05-28T14:51:01Z</time>
      </trkpt>
      <trkpt lat="59.3019664" lon="18.5000937">
        <ele>23.6896</ele>
        <time>2011-05-28T14:51:07Z</time>
      </trkpt>
      <trkpt lat="59.3019255" lon="18.4999304">
        <ele>25.1317</ele>
        <time>2011-05-28T14:51:12Z</time>
      </trkpt>
      <trkpt lat="59.3018996" lon="18.4997531">
        <ele>25.1317</ele>
        <time>2011-05-28T14:51:17Z</time>
      </trkpt>
      <trkpt lat="59.3018901" lon="18.4996987">
        <ele>26.0929</ele>
        <time>2011-05-28T14:51:19Z</time>
      </trkpt>
      <trkpt lat="59.3018364" lon="18.4995245">
        <ele>25.1317</ele>
        <time>2011-05-28T14:51:25Z</time>
      </trkpt>
      <trkpt lat="59.3017938" lon="18.4993374">
        <ele>25.6123</ele>
        <time>2011-05-28T14:51:32Z</time>
      </trkpt>
      <trkpt lat="59.3017638" lon="18.4992079">
        <ele>23.6896</ele>
        <time>2011-05-28T14:51:36Z</time>
      </trkpt>
      <trkpt lat="59.3017459" lon="18.4990927">
        <ele>20.8057</ele>
        <time>2011-05-28T14:51:40Z</time>
      </trkpt>
      <trkpt lat="59.3017191" lon="18.4989002">
        <ele>18.8831</ele>
        <time>2011-05-28T14:51:45Z</time>
      </trkpt>
      <trkpt lat="59.301755" lon="18.4987542">
        <ele>20.8057</ele>
        <time>2011-05-28T14:51:51Z</time>
      </trkpt>
      <trkpt lat="59.3017424" lon="18.4986885">
        <ele>21.767</ele>
        <time>2011-05-28T14:51:53Z</time>
      </trkpt>
      <trkpt lat="59.3016929" lon="18.4984575">
        <ele>25.1317</ele>
        <time>2011-05-28T14:51:59Z</time>
      </trkpt>
      <trkpt lat="59.3016401" lon="18.4982082">
        <ele>28.0155</ele>
        <time>2011-05-28T14:52:05Z</time>
      </trkpt>
      <trkpt lat="59.3015962" lon="18.4980359">
        <ele>28.4962</ele>
        <time>2011-05-28T14:52:09Z</time>
      </trkpt>
      <trkpt lat="59.3015224" lon="18.4978075">
        <ele>28.4962</ele>
        <time>2011-05-28T14:52:14Z</time>
      </trkpt>
      <trkpt lat="59.3015011" lon="18.4977233">
        <ele>27.5349</ele>
        <time>2011-05-28T14:52:16Z</time>
      </trkpt>
      <trkpt lat="59.3013894" lon="18.4976323">
        <ele>27.5349</ele>
        <time>2011-05-28T14:52:21Z</time>
      </trkpt>
      <trkpt lat="59.3012907" lon="18.4977282">
        <ele>28.0155</ele>
        <time>2011-05-28T14:52:26Z</time>
      </trkpt>
      <trkpt lat="59.3011993" lon="18.4978827">
        <ele>28.4962</ele>
        <time>2011-05-28T14:52:32Z</time>
      </trkpt>
      <trkpt lat="59.3011117" lon="18.4980579">
        <ele>30.4188</ele>
        <time>2011-05-28T14:52:37Z</time>
      </trkpt>
      <trkpt lat="59.3010563" lon="18.4982078">
        <ele>31.3801</ele>
        <time>2011-05-28T14:52:41Z</time>
      </trkpt>
      <trkpt lat="59.3010392" lon="18.4982553">
        <ele>31.8607</ele>
        <time>2011-05-28T14:52:42Z</time>
      </trkpt>
      <trkpt lat="59.3010251" lon="18.4985661">
        <ele>35.2255</ele>
        <time>2011-05-28T14:52:48Z</time>
      </trkpt>
      <trkpt lat="59.3009911" lon="18.4988399">
        <ele>36.6675</ele>
        <time>2011-05-28T14:52:53Z</time>
      </trkpt>
      <trkpt lat="59.3009682" lon="18.499079">
        <ele>37.6287</ele>
        <time>2011-05-28T14:52:59Z</time>
      </trkpt>
      <trkpt lat="59.3009404" lon="18.4992911">
        <ele>39.5513</ele>
        <time>2011-05-28T14:53:04Z</time>
      </trkpt>
      <trkpt lat="59.3008722" lon="18.4995531">
        <ele>38.5901</ele>
        <time>2011-05-28T14:53:10Z</time>
      </trkpt>
      <trkpt lat="59.3008517" lon="18.4995972">
        <ele>38.5901</ele>
        <time>2011-05-28T14:53:11Z</time>
      </trkpt>
      <trkpt lat="59.3008108" lon="18.4998842">
        <ele>38.1094</ele>
        <time>2011-05-28T14:53:17Z</time>
      </trkpt>
      <trkpt lat="59.3007879" lon="18.500015">
        <ele>37.1481</ele>
        <time>2011-05-28T14:53:20Z</time>
      </trkpt>
      <trkpt lat="59.3007647" lon="18.5001978">
        <ele>36.6675</ele>
        <time>2011-05-28T14:53:24Z</time>
      </trkpt>
      <trkpt lat="59.3007311" lon="18.5004358">
        <ele>36.1868</ele>
        <time>2011-05-28T14:53:29Z</time>
      </trkpt>
      <trkpt lat="59.300674" lon="18.5006295">
        <ele>35.7061</ele>
        <time>2011-05-28T14:53:33Z</time>
      </trkpt>
      <trkpt lat="59.3006233" lon="18.5008801">
        <ele>34.2642</ele>
        <time>2011-05-28T14:53:38Z</time>
      </trkpt>
      <trkpt lat="59.3005699" lon="18.5010958">
        <ele>34.7449</ele>
        <time>2011-05-28T14:53:43Z</time>
      </trkpt>
      <trkpt lat="59.3005279" lon="18.5013346">
        <ele>35.2255</ele>
        <time>2011-05-28T14:53:48Z</time>
      </trkpt>
      <trkpt lat="59.300475" lon="18.5015832">
        <ele>33.3029</ele>
        <time>2011-05-28T14:53:53Z</time>
      </trkpt>
      <trkpt lat="59.3004487" lon="18.5017633">
        <ele>33.3029</ele>
        <time>2011-05-28T14:53:57Z</time>
      </trkpt>
      <trkpt lat="59.3003741" lon="18.5019955">
        <ele>32.3416</ele>
        <time>2011-05-28T14:54:02Z</time>
      </trkpt>
      <trkpt lat="59.3003294" lon="18.5022437">
        <ele>31.3801</ele>
        <time>2011-05-28T14:54:07Z</time>
      </trkpt>
      <trkpt lat="59.3002872" lon="18.5024556">
        <ele>31.3801</ele>
        <time>2011-05-28T14:54:11Z</time>
      </trkpt>
      <trkpt lat="59.3002079" lon="18.5027218">
        <ele>31.8607</ele>
        <time>2011-05-28T14:54:17Z</time>
      </trkpt>
      <trkpt lat="59.3001665" lon="18.5029243">
        <ele>33.7834</ele>
        <time>2011-05-28T14:54:21Z</time>
      </trkpt>
      <trkpt lat="59.3001006" lon="18.5030985">
        <ele>33.3029</ele>
        <time>2011-05-28T14:54:25Z</time>
      </trkpt>
      <trkpt lat="59.3000285" lon="18.5033313">
        <ele>32.8223</ele>
        <time>2011-05-28T14:54:30Z</time>
      </trkpt>
      <trkpt lat="59.2999849" lon="18.5035303">
        <ele>32.8223</ele>
        <time>2011-05-28T14:54:35Z</time>
      </trkpt>
      <trkpt lat="59.2999419" lon="18.5037661">
        <ele>35.2255</ele>
        <time>2011-05-28T14:54:40Z</time>
      </trkpt>
      <trkpt lat="59.2998413" lon="18.5040831">
        <ele>36.6675</ele>
        <time>2011-05-28T14:54:46Z</time>
      </trkpt>
      <trkpt lat="59.2997685" lon="18.5043305">
        <ele>37.1481</ele>
        <time>2011-05-28T14:54:51Z</time>
      </trkpt>
      <trkpt lat="59.2997121" lon="18.5045802">
        <ele>37.1481</ele>
        <time>2011-05-28T14:54:56Z</time>
      </trkpt>
      <trkpt lat="59.2996446" lon="18.504841">
        <ele>36.1868</ele>
        <time>2011-05-28T14:55:01Z</time>
      </trkpt>
      <trkpt lat="59.2995637" lon="18.5050767">
        <ele>34.2642</ele>
        <time>2011-05-28T14:55:06Z</time>
      </trkpt>
      <trkpt lat="59.2994557" lon="18.5052376">
        <ele>32.8223</ele>
        <time>2011-05-28T14:55:11Z</time>
      </trkpt>
      <trkpt lat="59.2993391" lon="18.5053429">
        <ele>31.3801</ele>
        <time>2011-05-28T14:55:16Z</time>
      </trkpt>
      <trkpt lat="59.2992625" lon="18.5054614">
        <ele>30.8995</ele>
        <time>2011-05-28T14:55:20Z</time>
      </trkpt>
      <trkpt lat="59.2992451" lon="18.5055561">
        <ele>31.3801</ele>
        <time>2011-05-28T14:55:22Z</time>
      </trkpt>
      <trkpt lat="59.2992452" lon="18.5058112">
        <ele>31.3801</ele>
        <time>2011-05-28T14:55:27Z</time>
      </trkpt>
      <trkpt lat="59.299297" lon="18.5060718">
        <ele>31.3801</ele>
        <time>2011-05-28T14:55:32Z</time>
      </trkpt>
      <trkpt lat="59.2993468" lon="18.5064363">
        <ele>31.3801</ele>
        <time>2011-05-28T14:55:38Z</time>
      </trkpt>
      <trkpt lat="59.2993557" lon="18.5066662">
        <ele>30.4188</ele>
        <time>2011-05-28T14:55:42Z</time>
      </trkpt>
      <trkpt lat="59.2993612" lon="18.5068978">
        <ele>28.9769</ele>
        <time>2011-05-28T14:55:46Z</time>
      </trkpt>
      <trkpt lat="59.2993722" lon="18.5070772">
        <ele>29.4575</ele>
        <time>2011-05-28T14:55:49Z</time>
      </trkpt>
      <trkpt lat="59.2993743" lon="18.5072027">
        <ele>29.4575</ele>
        <time>2011-05-28T14:55:51Z</time>
      </trkpt>
    </trkseg>
  </trk>
</gpx>